sensor_id;sensor_type;location;lat;lon;timestamp;P1;durP1;ratioP1;P2;durP2;ratioP2
19004;SDS011;9635;52.078;8.648;2023-08-20T00:02:47;25.40;;;17.75;;
19004;SDS011;9635;52.078;8.648;2023-08-20T00:07:56;28.05;;;17.60;;
19004;SDS011;9635;52.078;8.648;2023-08-20T00:12:59;25.90;;;16.67;;
19004;SDS011;9635;52.078;8.648;2023-08-20T00:18:03;23.17;;;16.73;;
19004;SDS011;9635;52.078;8.648;2023-08-20T00:23:07;23.10;;;14.77;;
19004;SDS011;9635;52.078;8.648;2023-08-20T00:28:10;24.83;;;16.60;;
19004;SDS011;9635;52.078;8.648;2023-08-20T00:33:15;21.52;;;15.07;;
19004;SDS011;9635;52.078;8.648;2023-08-20T00:38:18;23.45;;;16.52;;
19004;SDS011;9635;52.078;8.648;2023-08-20T00:43:21;21.23;;;14.82;;
19004;SDS011;9635;52.078;8.648;2023-08-20T00:48:25;19.67;;;14.38;;
19004;SDS011;9635;52.078;8.648;2023-08-20T00:53:28;21.33;;;14.57;;
19004;SDS011;9635;52.078;8.648;2023-08-20T00:58:31;20.10;;;14.13;;
19004;SDS011;9635;52.078;8.648;2023-08-20T01:03:35;21.45;;;14.30;;
19004;SDS011;9635;52.078;8.648;2023-08-20T01:08:38;16.65;;;11.73;;
19004;SDS011;9635;52.078;8.648;2023-08-20T01:13:43;19.13;;;12.93;;
19004;SDS011;9635;52.078;8.648;2023-08-20T01:18:48;26.65;;;13.70;;
19004;SDS011;9635;52.078;8.648;2023-08-20T01:23:57;17.00;;;12.95;;
19004;SDS011;9635;52.078;8.648;2023-08-20T01:29:08;21.52;;;13.68;;
19004;SDS011;9635;52.078;8.648;2023-08-20T01:34:12;23.88;;;14.40;;
19004;SDS011;9635;52.078;8.648;2023-08-20T01:39:15;18.05;;;12.10;;
19004;SDS011;9635;52.078;8.648;2023-08-20T01:44:21;18.17;;;13.95;;
19004;SDS011;9635;52.078;8.648;2023-08-20T01:49:24;21.00;;;12.60;;
19004;SDS011;9635;52.078;8.648;2023-08-20T01:54:27;18.45;;;11.27;;
19004;SDS011;9635;52.078;8.648;2023-08-20T01:59:32;19.60;;;13.00;;
19004;SDS011;9635;52.078;8.648;2023-08-20T02:04:34;19.88;;;14.35;;
19004;SDS011;9635;52.078;8.648;2023-08-20T02:09:38;19.92;;;11.90;;
19004;SDS011;9635;52.078;8.648;2023-08-20T02:14:43;13.23;;;8.00;;
19004;SDS011;9635;52.078;8.648;2023-08-20T02:19:45;12.07;;;6.10;;
19004;SDS011;9635;52.078;8.648;2023-08-20T02:24:48;8.48;;;5.85;;
19004;SDS011;9635;52.078;8.648;2023-08-20T02:29:52;5.53;;;4.88;;
19004;SDS011;9635;52.078;8.648;2023-08-20T02:34:55;10.95;;;5.18;;
19004;SDS011;9635;52.078;8.648;2023-08-20T02:40:00;13.77;;;6.20;;
19004;SDS011;9635;52.078;8.648;2023-08-20T02:45:05;8.25;;;5.50;;
19004;SDS011;9635;52.078;8.648;2023-08-20T02:50:09;12.38;;;5.72;;
19004;SDS011;9635;52.078;8.648;2023-08-20T02:55:11;12.73;;;5.85;;
19004;SDS011;9635;52.078;8.648;2023-08-20T03:00:16;7.13;;;5.13;;
19004;SDS011;9635;52.078;8.648;2023-08-20T03:05:19;9.10;;;4.90;;
19004;SDS011;9635;52.078;8.648;2023-08-20T03:10:22;10.70;;;6.03;;
19004;SDS011;9635;52.078;8.648;2023-08-20T03:15:26;12.57;;;5.68;;
19004;SDS011;9635;52.078;8.648;2023-08-20T03:20:29;11.23;;;5.40;;
19004;SDS011;9635;52.078;8.648;2023-08-20T03:25:33;11.60;;;5.00;;
19004;SDS011;9635;52.078;8.648;2023-08-20T03:30:37;12.85;;;5.93;;
19004;SDS011;9635;52.078;8.648;2023-08-20T03:35:40;13.60;;;6.10;;
19004;SDS011;9635;52.078;8.648;2023-08-20T03:40:43;12.32;;;6.65;;
19004;SDS011;9635;52.078;8.648;2023-08-20T03:45:50;13.48;;;6.80;;
19004;SDS011;9635;52.078;8.648;2023-08-20T03:50:54;11.13;;;6.93;;
19004;SDS011;9635;52.078;8.648;2023-08-20T03:55:56;12.73;;;7.28;;
19004;SDS011;9635;52.078;8.648;2023-08-20T04:01:01;13.02;;;6.70;;
19004;SDS011;9635;52.078;8.648;2023-08-20T04:06:05;13.38;;;6.15;;
19004;SDS011;9635;52.078;8.648;2023-08-20T04:11:08;9.73;;;5.45;;
19004;SDS011;9635;52.078;8.648;2023-08-20T04:16:15;12.40;;;5.55;;
19004;SDS011;9635;52.078;8.648;2023-08-20T04:21:18;10.23;;;5.85;;
19004;SDS011;9635;52.078;8.648;2023-08-20T04:26:21;7.72;;;5.13;;
19004;SDS011;9635;52.078;8.648;2023-08-20T04:31:25;8.00;;;4.53;;
19004;SDS011;9635;52.078;8.648;2023-08-20T04:36:34;10.40;;;4.43;;
19004;SDS011;9635;52.078;8.648;2023-08-20T04:41:38;10.50;;;5.13;;
19004;SDS011;9635;52.078;8.648;2023-08-20T04:46:47;9.95;;;4.32;;
19004;SDS011;9635;52.078;8.648;2023-08-20T04:51:51;8.32;;;3.88;;
19004;SDS011;9635;52.078;8.648;2023-08-20T04:56:54;9.02;;;3.80;;
19004;SDS011;9635;52.078;8.648;2023-08-20T05:01:59;8.93;;;3.72;;
19004;SDS011;9635;52.078;8.648;2023-08-20T05:07:14;8.68;;;3.60;;
19004;SDS011;9635;52.078;8.648;2023-08-20T05:12:18;5.07;;;3.50;;
19004;SDS011;9635;52.078;8.648;2023-08-20T05:17:23;6.88;;;4.53;;
19004;SDS011;9635;52.078;8.648;2023-08-20T05:22:25;11.18;;;5.63;;
19004;SDS011;9635;52.078;8.648;2023-08-20T05:27:28;5.43;;;4.85;;
19004;SDS011;9635;52.078;8.648;2023-08-20T05:32:33;9.90;;;4.72;;
19004;SDS011;9635;52.078;8.648;2023-08-20T05:37:37;10.43;;;4.78;;
19004;SDS011;9635;52.078;8.648;2023-08-20T05:42:40;7.70;;;4.65;;
19004;SDS011;9635;52.078;8.648;2023-08-20T05:47:44;10.55;;;4.88;;
19004;SDS011;9635;52.078;8.648;2023-08-20T05:52:48;10.80;;;4.88;;
19004;SDS011;9635;52.078;8.648;2023-08-20T05:57:51;8.45;;;4.60;;
19004;SDS011;9635;52.078;8.648;2023-08-20T06:02:56;11.65;;;4.88;;
19004;SDS011;9635;52.078;8.648;2023-08-20T06:07:59;11.73;;;4.47;;
19004;SDS011;9635;52.078;8.648;2023-08-20T06:13:02;8.40;;;3.95;;
19004;SDS011;9635;52.078;8.648;2023-08-20T06:18:06;5.25;;;3.65;;
19004;SDS011;9635;52.078;8.648;2023-08-20T06:23:09;8.20;;;3.78;;
19004;SDS011;9635;52.078;8.648;2023-08-20T06:28:28;9.77;;;4.10;;
19004;SDS011;9635;52.078;8.648;2023-08-20T06:33:33;7.35;;;4.22;;
19004;SDS011;9635;52.078;8.648;2023-08-20T06:38:36;11.65;;;4.78;;
19004;SDS011;9635;52.078;8.648;2023-08-20T06:43:38;9.40;;;4.97;;
19004;SDS011;9635;52.078;8.648;2023-08-20T06:48:43;7.90;;;4.80;;
19004;SDS011;9635;52.078;8.648;2023-08-20T06:53:45;8.77;;;4.90;;
19004;SDS011;9635;52.078;8.648;2023-08-20T06:58:48;10.00;;;5.07;;
19004;SDS011;9635;52.078;8.648;2023-08-20T07:03:52;8.70;;;5.28;;
19004;SDS011;9635;52.078;8.648;2023-08-20T07:08:55;8.57;;;4.80;;
19004;SDS011;9635;52.078;8.648;2023-08-20T07:13:58;8.90;;;4.68;;
19004;SDS011;9635;52.078;8.648;2023-08-20T07:19:02;5.22;;;4.22;;
19004;SDS011;9635;52.078;8.648;2023-08-20T07:24:06;6.78;;;5.10;;
19004;SDS011;9635;52.078;8.648;2023-08-20T07:29:09;9.68;;;5.40;;
19004;SDS011;9635;52.078;8.648;2023-08-20T07:34:13;11.10;;;5.45;;
19004;SDS011;9635;52.078;8.648;2023-08-20T07:39:17;9.18;;;5.90;;
19004;SDS011;9635;52.078;8.648;2023-08-20T07:44:19;9.85;;;6.00;;
19004;SDS011;9635;52.078;8.648;2023-08-20T07:49:24;8.73;;;6.38;;
19004;SDS011;9635;52.078;8.648;2023-08-20T07:54:26;14.23;;;7.07;;
19004;SDS011;9635;52.078;8.648;2023-08-20T07:59:30;10.32;;;7.10;;
19004;SDS011;9635;52.078;8.648;2023-08-20T08:04:35;11.65;;;7.88;;
19004;SDS011;9635;52.078;8.648;2023-08-20T08:09:38;9.90;;;7.88;;
19004;SDS011;9635;52.078;8.648;2023-08-20T08:14:41;11.52;;;8.32;;
19004;SDS011;9635;52.078;8.648;2023-08-20T08:19:45;11.40;;;8.35;;
19004;SDS011;9635;52.078;8.648;2023-08-20T08:24:48;11.38;;;10.02;;
19004;SDS011;9635;52.078;8.648;2023-08-20T08:29:51;13.00;;;10.38;;
19004;SDS011;9635;52.078;8.648;2023-08-20T08:34:55;13.98;;;10.88;;
19004;SDS011;9635;52.078;8.648;2023-08-20T08:39:58;11.98;;;10.07;;
19004;SDS011;9635;52.078;8.648;2023-08-20T08:45:00;10.70;;;9.63;;
19004;SDS011;9635;52.078;8.648;2023-08-20T08:50:06;11.75;;;9.30;;
19004;SDS011;9635;52.078;8.648;2023-08-20T08:55:11;11.20;;;8.35;;
19004;SDS011;9635;52.078;8.648;2023-08-20T09:00:14;9.82;;;8.82;;
19004;SDS011;9635;52.078;8.648;2023-08-20T09:05:19;9.88;;;8.48;;
19004;SDS011;9635;52.078;8.648;2023-08-20T09:10:22;9.10;;;7.40;;
19004;SDS011;9635;52.078;8.648;2023-08-20T09:15:31;10.02;;;7.72;;
19004;SDS011;9635;52.078;8.648;2023-08-20T09:20:38;7.10;;;6.40;;
19004;SDS011;9635;52.078;8.648;2023-08-20T09:25:41;8.30;;;6.47;;
19004;SDS011;9635;52.078;8.648;2023-08-20T09:36:08;9.38;;;7.00;;
19004;SDS011;9635;52.078;8.648;2023-08-20T09:41:11;7.13;;;6.43;;
19004;SDS011;9635;52.078;8.648;2023-08-20T09:46:14;7.85;;;6.07;;
19004;SDS011;9635;52.078;8.648;2023-08-20T09:51:23;5.57;;;4.75;;
19004;SDS011;9635;52.078;8.648;2023-08-20T09:56:28;6.70;;;5.00;;
19004;SDS011;9635;52.078;8.648;2023-08-20T10:01:32;7.18;;;4.47;;
19004;SDS011;9635;52.078;8.648;2023-08-20T10:06:36;5.50;;;4.72;;
19004;SDS011;9635;52.078;8.648;2023-08-20T10:11:40;5.25;;;4.72;;
19004;SDS011;9635;52.078;8.648;2023-08-20T10:16:43;4.45;;;3.95;;
19004;SDS011;9635;52.078;8.648;2023-08-20T10:21:47;4.88;;;4.07;;
19004;SDS011;9635;52.078;8.648;2023-08-20T10:32:12;4.30;;;3.90;;
19004;SDS011;9635;52.078;8.648;2023-08-20T10:37:26;4.35;;;3.95;;
19004;SDS011;9635;52.078;8.648;2023-08-20T10:42:30;4.82;;;4.40;;
19004;SDS011;9635;52.078;8.648;2023-08-20T10:47:37;5.28;;;4.20;;
19004;SDS011;9635;52.078;8.648;2023-08-20T10:52:48;5.28;;;4.60;;
19004;SDS011;9635;52.078;8.648;2023-08-20T10:57:55;5.13;;;4.68;;
19004;SDS011;9635;52.078;8.648;2023-08-20T11:02:58;4.80;;;4.25;;
19004;SDS011;9635;52.078;8.648;2023-08-20T11:08:03;5.63;;;4.78;;
19004;SDS011;9635;52.078;8.648;2023-08-20T11:13:09;5.65;;;5.15;;
19004;SDS011;9635;52.078;8.648;2023-08-20T11:18:12;6.50;;;4.63;;
19004;SDS011;9635;52.078;8.648;2023-08-20T11:23:16;5.95;;;5.35;;
19004;SDS011;9635;52.078;8.648;2023-08-20T11:28:19;5.18;;;4.68;;
19004;SDS011;9635;52.078;8.648;2023-08-20T11:33:23;3.90;;;3.38;;
19004;SDS011;9635;52.078;8.648;2023-08-20T11:38:28;4.05;;;3.40;;
19004;SDS011;9635;52.078;8.648;2023-08-20T11:43:31;3.42;;;3.13;;
19004;SDS011;9635;52.078;8.648;2023-08-20T11:48:35;3.97;;;3.58;;
19004;SDS011;9635;52.078;8.648;2023-08-20T11:53:39;3.92;;;3.58;;
19004;SDS011;9635;52.078;8.648;2023-08-20T11:58:42;4.05;;;3.70;;
19004;SDS011;9635;52.078;8.648;2023-08-20T12:03:45;4.60;;;4.20;;
19004;SDS011;9635;52.078;8.648;2023-08-20T12:08:50;4.03;;;3.63;;
19004;SDS011;9635;52.078;8.648;2023-08-20T12:13:53;5.25;;;3.97;;
19004;SDS011;9635;52.078;8.648;2023-08-20T12:18:56;4.43;;;4.03;;
19004;SDS011;9635;52.078;8.648;2023-08-20T12:24:00;4.50;;;4.13;;
19004;SDS011;9635;52.078;8.648;2023-08-20T12:29:03;4.65;;;4.25;;
19004;SDS011;9635;52.078;8.648;2023-08-20T12:34:06;5.20;;;4.13;;
19004;SDS011;9635;52.078;8.648;2023-08-20T12:39:12;7.15;;;4.72;;
19004;SDS011;9635;52.078;8.648;2023-08-20T12:44:15;4.93;;;4.40;;
19004;SDS011;9635;52.078;8.648;2023-08-20T12:49:18;5.10;;;4.70;;
19004;SDS011;9635;52.078;8.648;2023-08-20T12:54:22;5.63;;;5.13;;
19004;SDS011;9635;52.078;8.648;2023-08-20T12:59:25;6.15;;;5.13;;
19004;SDS011;9635;52.078;8.648;2023-08-20T13:04:28;7.00;;;5.03;;
19004;SDS011;9635;52.078;8.648;2023-08-20T13:09:33;6.07;;;5.35;;
19004;SDS011;9635;52.078;8.648;2023-08-20T13:14:36;6.97;;;5.00;;
19004;SDS011;9635;52.078;8.648;2023-08-20T13:19:39;5.20;;;4.80;;
19004;SDS011;9635;52.078;8.648;2023-08-20T13:24:44;6.03;;;4.65;;
19004;SDS011;9635;52.078;8.648;2023-08-20T13:29:47;5.53;;;4.93;;
19004;SDS011;9635;52.078;8.648;2023-08-20T13:34:49;5.70;;;4.93;;
19004;SDS011;9635;52.078;8.648;2023-08-20T13:39:54;7.00;;;5.25;;
19004;SDS011;9635;52.078;8.648;2023-08-20T13:44:57;5.47;;;4.97;;
19004;SDS011;9635;52.078;8.648;2023-08-20T13:50:00;5.60;;;4.82;;
19004;SDS011;9635;52.078;8.648;2023-08-20T13:55:06;5.25;;;4.70;;
19004;SDS011;9635;52.078;8.648;2023-08-20T14:00:11;5.13;;;4.72;;
19004;SDS011;9635;52.078;8.648;2023-08-20T14:05:14;4.95;;;4.50;;
19004;SDS011;9635;52.078;8.648;2023-08-20T14:10:18;5.57;;;5.07;;
19004;SDS011;9635;52.078;8.648;2023-08-20T14:15:21;5.20;;;4.80;;
19004;SDS011;9635;52.078;8.648;2023-08-20T14:20:24;6.05;;;5.45;;
19004;SDS011;9635;52.078;8.648;2023-08-20T14:25:28;6.57;;;5.97;;
19004;SDS011;9635;52.078;8.648;2023-08-20T14:30:31;6.70;;;5.63;;
19004;SDS011;9635;52.078;8.648;2023-08-20T14:35:34;6.68;;;5.70;;
19004;SDS011;9635;52.078;8.648;2023-08-20T14:40:39;7.38;;;5.85;;
19004;SDS011;9635;52.078;8.648;2023-08-20T14:45:42;5.78;;;5.22;;
19004;SDS011;9635;52.078;8.648;2023-08-20T14:50:45;6.15;;;5.65;;
19004;SDS011;9635;52.078;8.648;2023-08-20T14:55:50;6.30;;;5.38;;
19004;SDS011;9635;52.078;8.648;2023-08-20T15:00:53;7.35;;;5.88;;
19004;SDS011;9635;52.078;8.648;2023-08-20T15:05:56;5.47;;;5.07;;
19004;SDS011;9635;52.078;8.648;2023-08-20T15:11:00;8.48;;;5.32;;
19004;SDS011;9635;52.078;8.648;2023-08-20T15:16:04;5.75;;;5.18;;
19004;SDS011;9635;52.078;8.648;2023-08-20T15:21:07;5.82;;;4.97;;
19004;SDS011;9635;52.078;8.648;2023-08-20T15:26:14;4.75;;;4.35;;
19004;SDS011;9635;52.078;8.648;2023-08-20T15:31:17;5.63;;;4.93;;
19004;SDS011;9635;52.078;8.648;2023-08-20T15:36:20;5.95;;;5.45;;
19004;SDS011;9635;52.078;8.648;2023-08-20T15:41:24;5.35;;;4.63;;
19004;SDS011;9635;52.078;8.648;2023-08-20T15:46:28;4.88;;;4.40;;
19004;SDS011;9635;52.078;8.648;2023-08-20T15:51:31;5.55;;;4.82;;
19004;SDS011;9635;52.078;8.648;2023-08-20T15:56:37;5.90;;;4.72;;
19004;SDS011;9635;52.078;8.648;2023-08-20T16:01:41;5.60;;;5.03;;
19004;SDS011;9635;52.078;8.648;2023-08-20T16:06:43;4.10;;;3.80;;
19004;SDS011;9635;52.078;8.648;2023-08-20T16:11:48;4.38;;;4.05;;
19004;SDS011;9635;52.078;8.648;2023-08-20T16:16:50;5.32;;;4.00;;
19004;SDS011;9635;52.078;8.648;2023-08-20T16:21:53;6.32;;;4.55;;
19004;SDS011;9635;52.078;8.648;2023-08-20T16:26:58;4.90;;;4.20;;
19004;SDS011;9635;52.078;8.648;2023-08-20T16:32:02;6.57;;;4.75;;
19004;SDS011;9635;52.078;8.648;2023-08-20T16:37:05;7.43;;;5.20;;
19004;SDS011;9635;52.078;8.648;2023-08-20T16:42:09;5.40;;;5.00;;
19004;SDS011;9635;52.078;8.648;2023-08-20T16:47:12;5.20;;;4.80;;
19004;SDS011;9635;52.078;8.648;2023-08-20T16:52:15;7.20;;;5.55;;
19004;SDS011;9635;52.078;8.648;2023-08-20T16:57:19;5.38;;;4.88;;
19004;SDS011;9635;52.078;8.648;2023-08-20T17:02:22;5.38;;;4.88;;
19004;SDS011;9635;52.078;8.648;2023-08-20T17:07:25;6.65;;;5.50;;
19004;SDS011;9635;52.078;8.648;2023-08-20T17:12:29;5.53;;;4.53;;
19004;SDS011;9635;52.078;8.648;2023-08-20T17:17:33;5.35;;;4.88;;
19004;SDS011;9635;52.078;8.648;2023-08-20T17:22:36;5.35;;;4.35;;
19004;SDS011;9635;52.078;8.648;2023-08-20T17:27:41;6.18;;;5.10;;
19004;SDS011;9635;52.078;8.648;2023-08-20T17:32:43;5.20;;;4.78;;
19004;SDS011;9635;52.078;8.648;2023-08-20T17:37:47;5.80;;;4.50;;
19004;SDS011;9635;52.078;8.648;2023-08-20T17:42:51;7.70;;;4.43;;
19004;SDS011;9635;52.078;8.648;2023-08-20T17:47:54;5.10;;;4.60;;
19004;SDS011;9635;52.078;8.648;2023-08-20T17:52:57;5.88;;;4.47;;
19004;SDS011;9635;52.078;8.648;2023-08-20T17:58:01;4.80;;;4.40;;
19004;SDS011;9635;52.078;8.648;2023-08-20T18:03:04;5.95;;;4.18;;
19004;SDS011;9635;52.078;8.648;2023-08-20T18:08:07;4.90;;;4.35;;
19004;SDS011;9635;52.078;8.648;2023-08-20T18:13:11;4.93;;;4.22;;
19004;SDS011;9635;52.078;8.648;2023-08-20T18:18:16;5.65;;;4.20;;
19004;SDS011;9635;52.078;8.648;2023-08-20T18:23:19;7.32;;;4.03;;
19004;SDS011;9635;52.078;8.648;2023-08-20T18:28:25;6.53;;;4.10;;
19004;SDS011;9635;52.078;8.648;2023-08-20T18:33:29;6.93;;;4.10;;
19004;SDS011;9635;52.078;8.648;2023-08-20T18:38:36;5.28;;;3.97;;
19004;SDS011;9635;52.078;8.648;2023-08-20T18:43:42;6.55;;;3.67;;
19004;SDS011;9635;52.078;8.648;2023-08-20T18:48:45;4.95;;;3.53;;
19004;SDS011;9635;52.078;8.648;2023-08-20T18:53:47;5.68;;;4.03;;
19004;SDS011;9635;52.078;8.648;2023-08-20T18:58:52;4.18;;;3.65;;
19004;SDS011;9635;52.078;8.648;2023-08-20T19:03:54;8.85;;;4.03;;
19004;SDS011;9635;52.078;8.648;2023-08-20T19:08:57;7.00;;;4.10;;
19004;SDS011;9635;52.078;8.648;2023-08-20T19:14:02;3.78;;;3.40;;
19004;SDS011;9635;52.078;8.648;2023-08-20T19:19:05;4.82;;;3.50;;
19004;SDS011;9635;52.078;8.648;2023-08-20T19:24:09;12.82;;;3.88;;
19004;SDS011;9635;52.078;8.648;2023-08-20T19:29:14;6.25;;;3.95;;
19004;SDS011;9635;52.078;8.648;2023-08-20T19:34:20;5.47;;;3.35;;
19004;SDS011;9635;52.078;8.648;2023-08-20T19:39:24;7.45;;;3.42;;
19004;SDS011;9635;52.078;8.648;2023-08-20T19:44:28;9.48;;;3.45;;
19004;SDS011;9635;52.078;8.648;2023-08-20T19:49:30;7.68;;;3.13;;
19004;SDS011;9635;52.078;8.648;2023-08-20T19:54:34;5.50;;;2.67;;
19004;SDS011;9635;52.078;8.648;2023-08-20T19:59:38;5.00;;;2.47;;
19004;SDS011;9635;52.078;8.648;2023-08-20T20:04:41;5.10;;;1.63;;
19004;SDS011;9635;52.078;8.648;2023-08-20T20:09:44;4.90;;;1.80;;
19004;SDS011;9635;52.078;8.648;2023-08-20T20:14:48;4.35;;;1.38;;
19004;SDS011;9635;52.078;8.648;2023-08-20T20:19:51;4.13;;;1.50;;
19004;SDS011;9635;52.078;8.648;2023-08-20T20:24:55;2.85;;;1.30;;
19004;SDS011;9635;52.078;8.648;2023-08-20T20:30:00;3.38;;;1.42;;
19004;SDS011;9635;52.078;8.648;2023-08-20T20:35:06;5.20;;;1.50;;
19004;SDS011;9635;52.078;8.648;2023-08-20T20:40:10;3.05;;;1.48;;
19004;SDS011;9635;52.078;8.648;2023-08-20T20:45:14;3.40;;;1.42;;
19004;SDS011;9635;52.078;8.648;2023-08-20T20:50:17;5.20;;;1.30;;
19004;SDS011;9635;52.078;8.648;2023-08-20T20:55:20;5.40;;;1.58;;
19004;SDS011;9635;52.078;8.648;2023-08-20T21:00:24;5.38;;;1.50;;
19004;SDS011;9635;52.078;8.648;2023-08-20T21:05:27;5.32;;;1.45;;
19004;SDS011;9635;52.078;8.648;2023-08-20T21:10:30;5.93;;;1.80;;
19004;SDS011;9635;52.078;8.648;2023-08-20T21:15:36;5.40;;;1.42;;
19004;SDS011;9635;52.078;8.648;2023-08-20T21:20:38;6.53;;;1.98;;
19004;SDS011;9635;52.078;8.648;2023-08-20T21:25:41;6.70;;;1.85;;
19004;SDS011;9635;52.078;8.648;2023-08-20T21:30:45;6.22;;;2.05;;
19004;SDS011;9635;52.078;8.648;2023-08-20T21:35:48;4.25;;;1.70;;
19004;SDS011;9635;52.078;8.648;2023-08-20T21:40:51;5.22;;;1.58;;
19004;SDS011;9635;52.078;8.648;2023-08-20T21:45:55;4.18;;;1.55;;
19004;SDS011;9635;52.078;8.648;2023-08-20T21:50:58;3.97;;;1.92;;
19004;SDS011;9635;52.078;8.648;2023-08-20T21:56:02;5.38;;;1.83;;
19004;SDS011;9635;52.078;8.648;2023-08-20T22:01:07;2.40;;;1.63;;
19004;SDS011;9635;52.078;8.648;2023-08-20T22:06:10;5.28;;;2.00;;
19004;SDS011;9635;52.078;8.648;2023-08-20T22:11:13;2.40;;;1.80;;
19004;SDS011;9635;52.078;8.648;2023-08-20T22:16:17;8.35;;;1.58;;
19004;SDS011;9635;52.078;8.648;2023-08-20T22:21:20;3.30;;;1.50;;
19004;SDS011;9635;52.078;8.648;2023-08-20T22:26:23;9.23;;;1.60;;
19004;SDS011;9635;52.078;8.648;2023-08-20T22:31:27;2.63;;;1.60;;
19004;SDS011;9635;52.078;8.648;2023-08-20T22:36:30;5.50;;;1.73;;
19004;SDS011;9635;52.078;8.648;2023-08-20T22:41:33;3.35;;;1.60;;
19004;SDS011;9635;52.078;8.648;2023-08-20T22:46:37;4.57;;;1.60;;
19004;SDS011;9635;52.078;8.648;2023-08-20T22:51:40;5.03;;;1.52;;
19004;SDS011;9635;52.078;8.648;2023-08-20T22:56:43;2.83;;;1.15;;
19004;SDS011;9635;52.078;8.648;2023-08-20T23:01:47;4.57;;;1.70;;
19004;SDS011;9635;52.078;8.648;2023-08-20T23:06:51;4.13;;;1.50;;
19004;SDS011;9635;52.078;8.648;2023-08-20T23:11:54;4.10;;;1.15;;
19004;SDS011;9635;52.078;8.648;2023-08-20T23:16:58;2.85;;;1.50;;
19004;SDS011;9635;52.078;8.648;2023-08-20T23:22:01;2.97;;;1.17;;
19004;SDS011;9635;52.078;8.648;2023-08-20T23:27:04;5.88;;;1.50;;
19004;SDS011;9635;52.078;8.648;2023-08-20T23:32:09;2.63;;;1.55;;
19004;SDS011;9635;52.078;8.648;2023-08-20T23:37:12;5.28;;;1.50;;
19004;SDS011;9635;52.078;8.648;2023-08-20T23:42:14;5.43;;;1.40;;
19004;SDS011;9635;52.078;8.648;2023-08-20T23:47:19;5.80;;;1.25;;
19004;SDS011;9635;52.078;8.648;2023-08-20T23:52:22;3.67;;;1.20;;
19004;SDS011;9635;52.078;8.648;2023-08-20T23:57:24;8.45;;;2.08;;
